sensor_id;sensor_type;location;lat;lon;timestamp;pressure;altitude;pressure_sealevel;temperature;humidity
3780;BME280;1905;52.482;9.802;2023-02-14T00:00:36;103207.22;;;3.85;90.51
3780;BME280;1905;52.482;9.802;2023-02-14T00:03:05;103203.72;;;3.84;90.08
3780;BME280;1905;52.482;9.802;2023-02-14T00:05:33;103193.19;;;3.81;90.69
3780;BME280;1905;52.482;9.802;2023-02-14T00:08:00;103207.88;;;3.76;90.07
3780;BME280;1905;52.482;9.802;2023-02-14T00:10:28;103202.53;;;3.72;90.45
3780;BME280;1905;52.482;9.802;2023-02-14T00:12:55;103209.44;;;3.70;90.51
3780;BME280;1905;52.482;9.802;2023-02-14T00:15:23;103208.50;;;3.66;90.00
3780;BME280;1905;52.482;9.802;2023-02-14T00:17:52;103205.72;;;3.60;89.74
3780;BME280;1905;52.482;9.802;2023-02-14T00:20:22;103211.84;;;3.62;90.78
3780;BME280;1905;52.482;9.802;2023-02-14T00:22:51;103211.84;;;3.62;90.77
3780;BME280;1905;52.482;9.802;2023-02-14T00:25:19;103203.88;;;3.56;90.10
3780;BME280;1905;52.482;9.802;2023-02-14T00:27:46;103197.81;;;3.57;90.24
3780;BME280;1905;52.482;9.802;2023-02-14T00:30:14;103203.81;;;3.53;90.50
3780;BME280;1905;52.482;9.802;2023-02-14T00:32:41;103199.50;;;3.55;90.04
3780;BME280;1905;52.482;9.802;2023-02-14T00:35:09;103196.78;;;3.50;89.92
3780;BME280;1905;52.482;9.802;2023-02-14T00:37:40;103199.34;;;3.49;89.43
3780;BME280;1905;52.482;9.802;2023-02-14T00:40:08;103194.09;;;3.49;89.79
3780;BME280;1905;52.482;9.802;2023-02-14T00:42:38;103196.63;;;3.46;89.94
3780;BME280;1905;52.482;9.802;2023-02-14T00:45:06;103201.84;;;3.44;89.94
3780;BME280;1905;52.482;9.802;2023-02-14T00:47:36;103199.03;;;3.37;90.11
3780;BME280;1905;52.482;9.802;2023-02-14T00:50:04;103205.09;;;3.36;89.74
3780;BME280;1905;52.482;9.802;2023-02-14T00:52:32;103196.34;;;3.34;90.43
3780;BME280;1905;52.482;9.802;2023-02-14T00:55:01;103209.41;;;3.34;89.99
3780;BME280;1905;52.482;9.802;2023-02-14T00:57:28;103214.75;;;3.40;90.03
3780;BME280;1905;52.482;9.802;2023-02-14T00:59:56;103213.63;;;3.30;90.10
3780;BME280;1905;52.482;9.802;2023-02-14T01:02:23;103214.34;;;3.25;90.41
3780;BME280;1905;52.482;9.802;2023-02-14T01:04:51;103221.44;;;3.29;90.69
3780;BME280;1905;52.482;9.802;2023-02-14T01:07:19;103207.44;;;3.27;89.77
3780;BME280;1905;52.482;9.802;2023-02-14T01:09:47;103212.75;;;3.30;89.76
3780;BME280;1905;52.482;9.802;2023-02-14T01:12:16;103214.28;;;3.22;89.25
3780;BME280;1905;52.482;9.802;2023-02-14T01:14:44;103209.75;;;3.16;90.91
3780;BME280;1905;52.482;9.802;2023-02-14T01:17:12;103203.00;;;3.23;89.64
3780;BME280;1905;52.482;9.802;2023-02-14T01:19:39;103203.81;;;3.22;89.49
3780;BME280;1905;52.482;9.802;2023-02-14T01:22:07;103202.78;;;3.15;90.22
3780;BME280;1905;52.482;9.802;2023-02-14T01:24:35;103210.66;;;3.17;89.54
3780;BME280;1905;52.482;9.802;2023-02-14T01:27:02;103204.47;;;3.13;90.06
3780;BME280;1905;52.482;9.802;2023-02-14T01:29:32;103200.81;;;3.07;90.25
3780;BME280;1905;52.482;9.802;2023-02-14T01:32:00;103205.25;;;3.11;89.52
3780;BME280;1905;52.482;9.802;2023-02-14T01:34:27;103201.47;;;2.99;90.46
3780;BME280;1905;52.482;9.802;2023-02-14T01:36:55;103196.31;;;3.01;90.21
3780;BME280;1905;52.482;9.802;2023-02-14T01:39:22;103197.09;;;2.98;90.78
3780;BME280;1905;52.482;9.802;2023-02-14T01:41:50;103201.31;;;2.93;90.14
3780;BME280;1905;52.482;9.802;2023-02-14T01:44:56;103203.66;;;2.84;90.18
3780;BME280;1905;52.482;9.802;2023-02-14T01:47:25;103201.25;;;2.92;89.50
3780;BME280;1905;52.482;9.802;2023-02-14T01:49:58;103193.44;;;2.92;90.23
3780;BME280;1905;52.482;9.802;2023-02-14T01:52:31;103199.44;;;2.89;90.23
3780;BME280;1905;52.482;9.802;2023-02-14T01:55:03;103204.56;;;2.86;90.17
3780;BME280;1905;52.482;9.802;2023-02-14T01:57:34;103208.75;;;2.80;89.96
3780;BME280;1905;52.482;9.802;2023-02-14T02:00:07;103198.06;;;2.72;90.66
3780;BME280;1905;52.482;9.802;2023-02-14T02:02:53;103199.03;;;2.74;90.85
3780;BME280;1905;52.482;9.802;2023-02-14T02:05:22;103192.94;;;2.75;90.23
3780;BME280;1905;52.482;9.802;2023-02-14T02:07:50;103196.34;;;2.73;89.84
3780;BME280;1905;52.482;9.802;2023-02-14T02:10:19;103194.44;;;2.66;91.12
3780;BME280;1905;52.482;9.802;2023-02-14T02:12:49;103190.16;;;2.69;90.44
3780;BME280;1905;52.482;9.802;2023-02-14T02:15:21;103183.38;;;2.74;90.06
3780;BME280;1905;52.482;9.802;2023-02-14T02:17:59;103183.19;;;2.68;89.36
3780;BME280;1905;52.482;9.802;2023-02-14T02:23:52;103182.19;;;2.63;90.37
3780;BME280;1905;52.482;9.802;2023-02-14T02:30:08;103173.25;;;2.55;90.29
3780;BME280;1905;52.482;9.802;2023-02-14T02:33:16;103167.34;;;2.62;90.52
3780;BME280;1905;52.482;9.802;2023-02-14T02:39:03;103153.31;;;2.57;89.92
3780;BME280;1905;52.482;9.802;2023-02-14T02:41:45;103156.94;;;2.62;89.72
3780;BME280;1905;52.482;9.802;2023-02-14T02:44:16;103150.63;;;2.56;90.06
3780;BME280;1905;52.482;9.802;2023-02-14T02:46:51;103157.81;;;2.63;89.84
3780;BME280;1905;52.482;9.802;2023-02-14T02:49:29;103150.78;;;2.60;88.91
3780;BME280;1905;52.482;9.802;2023-02-14T02:52:21;103149.63;;;2.51;89.82
3780;BME280;1905;52.482;9.802;2023-02-14T02:55:13;103148.91;;;2.56;89.18
3780;BME280;1905;52.482;9.802;2023-02-14T02:57:45;103145.41;;;2.56;88.75
3780;BME280;1905;52.482;9.802;2023-02-14T03:00:14;103147.25;;;2.58;89.60
3780;BME280;1905;52.482;9.802;2023-02-14T03:02:45;103148.81;;;2.53;90.13
3780;BME280;1905;52.482;9.802;2023-02-14T03:05:33;103144.38;;;2.49;90.34
3780;BME280;1905;52.482;9.802;2023-02-14T03:08:03;103149.69;;;2.52;88.98
3780;BME280;1905;52.482;9.802;2023-02-14T03:10:34;103145.28;;;2.51;89.74
3780;BME280;1905;52.482;9.802;2023-02-14T03:13:26;103137.47;;;2.51;89.48
3780;BME280;1905;52.482;9.802;2023-02-14T03:16:09;103138.97;;;2.43;89.59
3780;BME280;1905;52.482;9.802;2023-02-14T03:18:56;103132.78;;;2.39;90.02
3780;BME280;1905;52.482;9.802;2023-02-14T03:21:53;103134.66;;;2.44;89.70
3780;BME280;1905;52.482;9.802;2023-02-14T03:24:28;103130.97;;;2.37;90.30
3780;BME280;1905;52.482;9.802;2023-02-14T03:27:04;103126.78;;;2.42;89.89
3780;BME280;1905;52.482;9.802;2023-02-14T03:29:43;103122.22;;;2.35;89.92
3780;BME280;1905;52.482;9.802;2023-02-14T03:32:17;103120.50;;;2.35;88.96
3780;BME280;1905;52.482;9.802;2023-02-14T03:34:52;103126.53;;;2.33;89.42
3780;BME280;1905;52.482;9.802;2023-02-14T03:37:25;103126.63;;;2.36;89.70
3780;BME280;1905;52.482;9.802;2023-02-14T03:40:02;103116.00;;;2.30;89.82
3780;BME280;1905;52.482;9.802;2023-02-14T03:42:35;103117.72;;;2.29;89.04
3780;BME280;1905;52.482;9.802;2023-02-14T03:45:07;103119.44;;;2.29;88.94
3780;BME280;1905;52.482;9.802;2023-02-14T03:47:39;103113.31;;;2.27;89.74
3780;BME280;1905;52.482;9.802;2023-02-14T03:50:11;103113.34;;;2.28;89.57
3780;BME280;1905;52.482;9.802;2023-02-14T03:52:42;103118.41;;;2.24;89.12
3780;BME280;1905;52.482;9.802;2023-02-14T03:55:15;103116.59;;;2.20;89.37
3780;BME280;1905;52.482;9.802;2023-02-14T03:58:06;103107.69;;;2.13;90.26
3780;BME280;1905;52.482;9.802;2023-02-14T04:00:37;103104.94;;;2.09;89.73
3780;BME280;1905;52.482;9.802;2023-02-14T04:03:09;103108.75;;;2.20;90.35
3780;BME280;1905;52.482;9.802;2023-02-14T04:05:38;103112.22;;;2.20;89.46
3780;BME280;1905;52.482;9.802;2023-02-14T04:08:09;103103.38;;;2.14;89.19
3780;BME280;1905;52.482;9.802;2023-02-14T04:10:38;103117.41;;;2.19;89.27
3780;BME280;1905;52.482;9.802;2023-02-14T04:13:08;103110.16;;;2.09;89.63
3780;BME280;1905;52.482;9.802;2023-02-14T04:15:35;103108.38;;;2.08;89.60
3780;BME280;1905;52.482;9.802;2023-02-14T04:18:03;103104.06;;;2.08;89.84
3780;BME280;1905;52.482;9.802;2023-02-14T04:20:48;103096.19;;;2.07;89.98
3780;BME280;1905;52.482;9.802;2023-02-14T04:23:16;103104.06;;;2.08;89.70
3780;BME280;1905;52.482;9.802;2023-02-14T04:25:44;103101.31;;;2.04;89.56
3780;BME280;1905;52.482;9.802;2023-02-14T04:28:12;103101.31;;;2.04;89.62
3780;BME280;1905;52.482;9.802;2023-02-14T04:30:40;103101.13;;;1.98;89.11
3780;BME280;1905;52.482;9.802;2023-02-14T04:33:07;103098.63;;;2.01;89.94
3780;BME280;1905;52.482;9.802;2023-02-14T04:35:36;103091.72;;;2.03;89.48
3780;BME280;1905;52.482;9.802;2023-02-14T04:38:04;103081.78;;;1.90;90.21
3780;BME280;1905;52.482;9.802;2023-02-14T04:40:31;103088.66;;;1.88;90.54
3780;BME280;1905;52.482;9.802;2023-02-14T04:43:00;103078.31;;;1.91;89.87
3780;BME280;1905;52.482;9.802;2023-02-14T04:45:29;103066.16;;;1.90;89.45
3780;BME280;1905;52.482;9.802;2023-02-14T04:47:57;103081.72;;;1.88;89.51
3780;BME280;1905;52.482;9.802;2023-02-14T04:50:25;103080.00;;;1.89;89.98
3780;BME280;1905;52.482;9.802;2023-02-14T04:52:53;103073.81;;;1.85;89.86
3780;BME280;1905;52.482;9.802;2023-02-14T04:55:21;103079.91;;;1.86;90.22
3780;BME280;1905;52.482;9.802;2023-02-14T04:57:48;103078.22;;;1.88;89.59
3780;BME280;1905;52.482;9.802;2023-02-14T05:00:18;103084.66;;;1.70;90.38
3780;BME280;1905;52.482;9.802;2023-02-14T05:02:46;103074.59;;;1.83;90.11
3780;BME280;1905;52.482;9.802;2023-02-14T05:05:14;103081.50;;;1.80;89.61
3780;BME280;1905;52.482;9.802;2023-02-14T05:07:41;103078.78;;;1.77;90.01
3780;BME280;1905;52.482;9.802;2023-02-14T05:10:13;103080.50;;;1.77;90.01
3780;BME280;1905;52.482;9.802;2023-02-14T05:12:41;103073.59;;;1.77;89.70
3780;BME280;1905;52.482;9.802;2023-02-14T05:15:09;103079.53;;;1.73;90.19
3780;BME280;1905;52.482;9.802;2023-02-14T05:17:38;103077.38;;;1.60;90.46
3780;BME280;1905;52.482;9.802;2023-02-14T05:20:07;103076.66;;;1.64;90.23
3780;BME280;1905;52.482;9.802;2023-02-14T05:22:35;103075.06;;;1.69;90.49
3780;BME280;1905;52.482;9.802;2023-02-14T05:25:02;103073.13;;;1.62;90.26
3780;BME280;1905;52.482;9.802;2023-02-14T05:27:30;103066.97;;;1.60;90.87
3780;BME280;1905;52.482;9.802;2023-02-14T05:29:57;103073.94;;;1.61;90.14
3780;BME280;1905;52.482;9.802;2023-02-14T05:32:25;103075.94;;;1.68;89.42
3780;BME280;1905;52.482;9.802;2023-02-14T05:34:54;103072.81;;;1.53;90.55
3780;BME280;1905;52.482;9.802;2023-02-14T05:37:22;103069.53;;;1.59;90.21
3780;BME280;1905;52.482;9.802;2023-02-14T05:39:50;103061.69;;;1.57;90.57
3780;BME280;1905;52.482;9.802;2023-02-14T05:42:17;103065.22;;;1.59;90.21
3780;BME280;1905;52.482;9.802;2023-02-14T05:44:45;103069.16;;;1.47;90.52
3780;BME280;1905;52.482;9.802;2023-02-14T05:47:14;103069.19;;;1.48;90.90
3780;BME280;1905;52.482;9.802;2023-02-14T05:49:41;103059.69;;;1.50;90.10
3780;BME280;1905;52.482;9.802;2023-02-14T05:52:10;103066.78;;;1.54;90.57
3780;BME280;1905;52.482;9.802;2023-02-14T05:54:38;103068.44;;;1.52;90.50
3780;BME280;1905;52.482;9.802;2023-02-14T05:57:05;103073.75;;;1.55;89.65
3780;BME280;1905;52.482;9.802;2023-02-14T05:59:33;103069.41;;;1.54;90.49
3780;BME280;1905;52.482;9.802;2023-02-14T06:02:00;103071.22;;;1.57;89.53
3780;BME280;1905;52.482;9.802;2023-02-14T06:04:28;103082.50;;;1.57;89.39
3780;BME280;1905;52.482;9.802;2023-02-14T06:06:56;103080.75;;;1.58;90.60
3780;BME280;1905;52.482;9.802;2023-02-14T06:09:25;103080.72;;;1.56;90.03
3780;BME280;1905;52.482;9.802;2023-02-14T06:11:52;103083.47;;;1.61;89.53
3780;BME280;1905;52.482;9.802;2023-02-14T06:14:20;103080.94;;;1.62;89.99
3780;BME280;1905;52.482;9.802;2023-02-14T06:16:48;103080.94;;;1.62;89.37
3780;BME280;1905;52.482;9.802;2023-02-14T06:19:15;103082.69;;;1.63;89.93
3780;BME280;1905;52.482;9.802;2023-02-14T06:21:43;103087.75;;;1.59;90.05
3780;BME280;1905;52.482;9.802;2023-02-14T06:24:10;103089.25;;;1.52;89.97
3780;BME280;1905;52.482;9.802;2023-02-14T06:26:39;103084.16;;;1.55;90.44
3780;BME280;1905;52.482;9.802;2023-02-14T06:29:07;103087.63;;;1.54;90.03
3780;BME280;1905;52.482;9.802;2023-02-14T06:31:34;103087.63;;;1.54;90.44
3780;BME280;1905;52.482;9.802;2023-02-14T06:34:02;103084.25;;;1.58;90.51
3780;BME280;1905;52.482;9.802;2023-02-14T06:36:29;103091.25;;;1.59;89.91
3780;BME280;1905;52.482;9.802;2023-02-14T06:38:57;103098.13;;;1.57;90.32
3780;BME280;1905;52.482;9.802;2023-02-14T06:41:24;103094.97;;;1.67;89.68
3780;BME280;1905;52.482;9.802;2023-02-14T06:43:53;103094.88;;;1.64;89.70
3780;BME280;1905;52.482;9.802;2023-02-14T06:46:21;103099.28;;;1.67;89.83
3780;BME280;1905;52.482;9.802;2023-02-14T06:48:48;103096.81;;;1.71;89.56
3780;BME280;1905;52.482;9.802;2023-02-14T06:51:16;103090.69;;;1.69;89.22
3780;BME280;1905;52.482;9.802;2023-02-14T06:53:44;103096.00;;;1.72;89.03
3780;BME280;1905;52.482;9.802;2023-02-14T06:56:11;103091.56;;;1.68;90.01
3780;BME280;1905;52.482;9.802;2023-02-14T06:58:39;103097.69;;;1.70;89.90
3780;BME280;1905;52.482;9.802;2023-02-14T07:01:08;103086.41;;;1.71;89.90
3780;BME280;1905;52.482;9.802;2023-02-14T07:03:35;103082.88;;;1.69;89.14
3780;BME280;1905;52.482;9.802;2023-02-14T07:06:03;103093.19;;;1.66;90.40
3780;BME280;1905;52.482;9.802;2023-02-14T07:08:30;103091.59;;;1.70;89.95
3780;BME280;1905;52.482;9.802;2023-02-14T07:10:58;103096.81;;;1.71;90.10
3780;BME280;1905;52.482;9.802;2023-02-14T07:13:26;103088.28;;;1.75;89.44
3780;BME280;1905;52.482;9.802;2023-02-14T07:15:53;103095.19;;;1.73;89.63
3780;BME280;1905;52.482;9.802;2023-02-14T07:18:22;103097.03;;;1.77;89.72
3780;BME280;1905;52.482;9.802;2023-02-14T07:20:50;103103.13;;;1.78;89.43
3780;BME280;1905;52.482;9.802;2023-02-14T07:23:18;103097.13;;;1.80;89.54
3780;BME280;1905;52.482;9.802;2023-02-14T07:25:45;103086.69;;;1.80;89.06
3780;BME280;1905;52.482;9.802;2023-02-14T07:28:13;103094.47;;;1.79;89.91
3780;BME280;1905;52.482;9.802;2023-02-14T07:30:40;103093.69;;;1.82;89.42
3780;BME280;1905;52.482;9.802;2023-02-14T07:33:08;103094.59;;;1.82;89.62
3780;BME280;1905;52.482;9.802;2023-02-14T07:35:37;103096.31;;;1.83;89.64
3780;BME280;1905;52.482;9.802;2023-02-14T07:38:04;103099.81;;;1.84;89.27
3780;BME280;1905;52.482;9.802;2023-02-14T07:40:32;103095.63;;;1.89;88.81
3780;BME280;1905;52.482;9.802;2023-02-14T07:42:59;103099.84;;;1.85;89.49
3780;BME280;1905;52.482;9.802;2023-02-14T07:45:27;103086.81;;;1.84;89.81
3780;BME280;1905;52.482;9.802;2023-02-14T07:47:55;103091.13;;;1.83;89.25
3780;BME280;1905;52.482;9.802;2023-02-14T07:50:25;103092.03;;;1.85;88.84
3780;BME280;1905;52.482;9.802;2023-02-14T07:52:54;103084.22;;;1.85;89.28
3780;BME280;1905;52.482;9.802;2023-02-14T07:55:22;103085.13;;;1.86;89.77
3780;BME280;1905;52.482;9.802;2023-02-14T07:57:50;103080.81;;;1.88;89.18
3780;BME280;1905;52.482;9.802;2023-02-14T08:00:19;103078.22;;;1.88;89.02
3780;BME280;1905;52.482;9.802;2023-02-14T08:02:46;103086.03;;;1.88;89.45
3780;BME280;1905;52.482;9.802;2023-02-14T08:05:14;103072.16;;;1.87;89.49
3780;BME280;1905;52.482;9.802;2023-02-14T08:07:42;103077.41;;;1.89;89.29
3780;BME280;1905;52.482;9.802;2023-02-14T08:10:11;103080.81;;;1.88;88.98
3780;BME280;1905;52.482;9.802;2023-02-14T08:12:39;103089.59;;;1.90;89.53
3780;BME280;1905;52.482;9.802;2023-02-14T08:15:26;103080.00;;;1.89;89.20
3780;BME280;1905;52.482;9.802;2023-02-14T08:18:12;103084.31;;;1.88;89.01
3780;BME280;1905;52.482;9.802;2023-02-14T08:20:40;103085.31;;;1.92;89.47
3780;BME280;1905;52.482;9.802;2023-02-14T08:23:09;103088.75;;;1.91;89.91
3780;BME280;1905;52.482;9.802;2023-02-14T08:25:38;103088.75;;;1.91;89.44
3780;BME280;1905;52.482;9.802;2023-02-14T08:28:06;103087.91;;;1.92;90.31
3780;BME280;1905;52.482;9.802;2023-02-14T08:30:35;103081.88;;;1.93;90.32
3780;BME280;1905;52.482;9.802;2023-02-14T08:33:03;103088.00;;;1.95;90.69
3780;BME280;1905;52.482;9.802;2023-02-14T08:35:31;103084.50;;;1.93;91.53
3780;BME280;1905;52.482;9.802;2023-02-14T08:37:58;103080.28;;;1.98;91.04
3780;BME280;1905;52.482;9.802;2023-02-14T08:40:27;103083.63;;;1.94;91.28
3780;BME280;1905;52.482;9.802;2023-02-14T08:42:56;103081.97;;;1.96;92.71
3780;BME280;1905;52.482;9.802;2023-02-14T08:45:23;103076.81;;;1.99;92.71
3780;BME280;1905;52.482;9.802;2023-02-14T08:47:52;103082.03;;;1.99;90.58
3780;BME280;1905;52.482;9.802;2023-02-14T08:50:19;103073.50;;;2.03;93.03
3780;BME280;1905;52.482;9.802;2023-02-14T08:52:47;103081.41;;;2.06;92.99
3780;BME280;1905;52.482;9.802;2023-02-14T08:55:15;103078.81;;;2.07;93.14
3780;BME280;1905;52.482;9.802;2023-02-14T08:57:42;103080.63;;;2.10;94.71
3780;BME280;1905;52.482;9.802;2023-02-14T09:00:12;103077.22;;;2.11;93.11
3780;BME280;1905;52.482;9.802;2023-02-14T09:02:40;103088.63;;;2.14;93.26
3780;BME280;1905;52.482;9.802;2023-02-14T09:05:07;103084.34;;;2.18;93.73
3780;BME280;1905;52.482;9.802;2023-02-14T09:07:36;103083.63;;;2.22;94.86
3780;BME280;1905;52.482;9.802;2023-02-14T09:10:05;103083.72;;;2.25;94.67
3780;BME280;1905;52.482;9.802;2023-02-14T09:12:32;103079.69;;;2.36;94.76
3780;BME280;1905;52.482;9.802;2023-02-14T09:15:00;103074.47;;;2.36;95.65
3780;BME280;1905;52.482;9.802;2023-02-14T09:17:29;103070.09;;;2.35;95.45
3780;BME280;1905;52.482;9.802;2023-02-14T09:19:57;103070.28;;;2.41;95.84
3780;BME280;1905;52.482;9.802;2023-02-14T09:22:24;103069.41;;;2.42;95.10
3780;BME280;1905;52.482;9.802;2023-02-14T09:24:52;103074.81;;;2.48;96.21
3780;BME280;1905;52.482;9.802;2023-02-14T09:27:19;103066.97;;;2.48;95.18
3780;BME280;1905;52.482;9.802;2023-02-14T09:29:47;103069.69;;;2.51;95.98
3780;BME280;1905;52.482;9.802;2023-02-14T09:32:14;103073.19;;;2.53;95.85
3780;BME280;1905;52.482;9.802;2023-02-14T09:34:43;103070.13;;;2.66;97.06
3780;BME280;1905;52.482;9.802;2023-02-14T09:37:29;103062.50;;;2.74;97.96
3780;BME280;1905;52.482;9.802;2023-02-14T09:40:16;103059.28;;;2.85;98.01
3780;BME280;1905;52.482;9.802;2023-02-14T09:42:52;103058.53;;;2.89;98.41
3780;BME280;1905;52.482;9.802;2023-02-14T09:45:24;103056.19;;;2.98;97.27
3780;BME280;1905;52.482;9.802;2023-02-14T09:47:55;103057.19;;;3.04;98.29
3780;BME280;1905;52.482;9.802;2023-02-14T09:50:27;103056.47;;;3.11;97.91
3780;BME280;1905;52.482;9.802;2023-02-14T09:52:59;103054.91;;;3.17;97.81
3780;BME280;1905;52.482;9.802;2023-02-14T09:55:33;103053.13;;;3.15;97.86
3780;BME280;1905;52.482;9.802;2023-02-14T09:58:12;103042.78;;;3.21;97.48
3780;BME280;1905;52.482;9.802;2023-02-14T10:00:45;103045.56;;;3.27;98.31
3780;BME280;1905;52.482;9.802;2023-02-14T10:03:35;103046.63;;;3.33;98.32
3780;BME280;1905;52.482;9.802;2023-02-14T10:06:20;103042.41;;;3.40;98.79
3780;BME280;1905;52.482;9.802;2023-02-14T10:08:57;103042.84;;;3.58;98.61
3780;BME280;1905;52.482;9.802;2023-02-14T10:11:28;103041.38;;;3.69;98.83
3780;BME280;1905;52.482;9.802;2023-02-14T10:14:00;103042.19;;;3.68;97.92
3780;BME280;1905;52.482;9.802;2023-02-14T10:16:32;103045.88;;;3.76;99.02
3780;BME280;1905;52.482;9.802;2023-02-14T10:19:05;103039.13;;;3.86;99.07
3780;BME280;1905;52.482;9.802;2023-02-14T10:21:37;103047.06;;;3.90;98.51
3780;BME280;1905;52.482;9.802;2023-02-14T10:24:10;103037.72;;;4.01;99.28
3780;BME280;1905;52.482;9.802;2023-02-14T10:26:40;103031.81;;;4.11;99.08
3780;BME280;1905;52.482;9.802;2023-02-14T10:29:12;103031.94;;;4.17;98.35
3780;BME280;1905;52.482;9.802;2023-02-14T10:31:43;103032.00;;;4.20;99.39
3780;BME280;1905;52.482;9.802;2023-02-14T10:34:21;103032.19;;;4.30;98.97
3780;BME280;1905;52.482;9.802;2023-02-14T10:37:10;103030.44;;;4.29;98.78
3780;BME280;1905;52.482;9.802;2023-02-14T10:39:50;103029.81;;;4.40;99.55
3780;BME280;1905;52.482;9.802;2023-02-14T10:42:24;103030.00;;;4.51;99.25
3780;BME280;1905;52.482;9.802;2023-02-14T10:45:04;103029.06;;;4.49;97.91
3780;BME280;1905;52.482;9.802;2023-02-14T10:47:43;103027.72;;;4.69;98.92
3780;BME280;1905;52.482;9.802;2023-02-14T10:50:17;103026.91;;;4.73;98.49
3780;BME280;1905;52.482;9.802;2023-02-14T10:52:53;103016.69;;;4.87;98.97
3780;BME280;1905;52.482;9.802;2023-02-14T10:55:27;103011.47;;;4.88;97.85
3780;BME280;1905;52.482;9.802;2023-02-14T10:58:02;103008.16;;;4.98;98.31
3780;BME280;1905;52.482;9.802;2023-02-14T11:00:33;103001.41;;;5.12;98.51
3780;BME280;1905;52.482;9.802;2023-02-14T11:03:05;103003.19;;;5.15;97.67
3780;BME280;1905;52.482;9.802;2023-02-14T11:05:35;102997.38;;;5.32;98.50
3780;BME280;1905;52.482;9.802;2023-02-14T11:08:13;102982.59;;;5.37;97.17
3780;BME280;1905;52.482;9.802;2023-02-14T11:10:41;102981.78;;;5.41;97.80
3780;BME280;1905;52.482;9.802;2023-02-14T11:13:30;102986.19;;;5.44;97.09
3780;BME280;1905;52.482;9.802;2023-02-14T11:16:01;102979.34;;;5.54;97.43
3780;BME280;1905;52.482;9.802;2023-02-14T11:18:30;102980.38;;;5.65;97.98
3780;BME280;1905;52.482;9.802;2023-02-14T11:21:04;102974.47;;;5.81;97.12
3780;BME280;1905;52.482;9.802;2023-02-14T11:23:35;102969.19;;;5.79;96.34
3780;BME280;1905;52.482;9.802;2023-02-14T11:26:08;102974.56;;;5.85;96.57
3780;BME280;1905;52.482;9.802;2023-02-14T11:28:45;102965.09;;;5.98;96.87
3780;BME280;1905;52.482;9.802;2023-02-14T11:31:24;102961.69;;;6.05;96.70
3780;BME280;1905;52.482;9.802;2023-02-14T11:33:52;102965.25;;;6.12;96.08
3780;BME280;1905;52.482;9.802;2023-02-14T11:36:19;102961.00;;;6.23;96.49
3780;BME280;1905;52.482;9.802;2023-02-14T11:38:57;102956.63;;;6.23;95.59
3780;BME280;1905;52.482;9.802;2023-02-14T11:41:45;102962.91;;;6.37;95.23
3780;BME280;1905;52.482;9.802;2023-02-14T11:44:21;102957.75;;;6.43;95.60
3780;BME280;1905;52.482;9.802;2023-02-14T11:46:50;102944.69;;;6.49;95.54
3780;BME280;1905;52.482;9.802;2023-02-14T11:49:25;102955.25;;;6.58;95.78
3780;BME280;1905;52.482;9.802;2023-02-14T11:51:55;102945.75;;;6.71;95.06
3780;BME280;1905;52.482;9.802;2023-02-14T11:54:28;102942.31;;;6.78;94.42
3780;BME280;1905;52.482;9.802;2023-02-14T11:57:01;102950.22;;;6.83;94.69
3780;BME280;1905;52.482;9.802;2023-02-14T11:59:34;102945.03;;;6.92;94.54
3780;BME280;1905;52.482;9.802;2023-02-14T12:02:13;102943.28;;;6.94;94.37
3780;BME280;1905;52.482;9.802;2023-02-14T12:04:46;102937.25;;;7.05;94.92
3780;BME280;1905;52.482;9.802;2023-02-14T12:07:19;102932.09;;;7.19;93.23
3780;BME280;1905;52.482;9.802;2023-02-14T12:10:06;102926.94;;;7.33;93.29
3780;BME280;1905;52.482;9.802;2023-02-14T12:12:35;102924.34;;;7.40;93.01
3780;BME280;1905;52.482;9.802;2023-02-14T12:15:20;102918.25;;;7.47;92.23
3780;BME280;1905;52.482;9.802;2023-02-14T12:17:54;102912.97;;;7.46;92.72
3780;BME280;1905;52.482;9.802;2023-02-14T12:20:32;102910.41;;;7.55;92.79
3780;BME280;1905;52.482;9.802;2023-02-14T12:23:08;102905.16;;;7.62;92.19
3780;BME280;1905;52.482;9.802;2023-02-14T12:25:42;102903.50;;;7.79;91.51
3780;BME280;1905;52.482;9.802;2023-02-14T12:28:13;102891.19;;;7.75;90.90
3780;BME280;1905;52.482;9.802;2023-02-14T12:30:42;102894.72;;;7.84;91.68
3780;BME280;1905;52.482;9.802;2023-02-14T12:33:16;102887.75;;;7.99;90.32
3780;BME280;1905;52.482;9.802;2023-02-14T12:35:51;102887.81;;;8.10;90.71
3780;BME280;1905;52.482;9.802;2023-02-14T12:38:28;102877.25;;;8.13;90.48
3780;BME280;1905;52.482;9.802;2023-02-14T12:41:09;102869.38;;;8.22;90.04
3780;BME280;1905;52.482;9.802;2023-02-14T12:43:46;102869.41;;;8.29;89.98
3780;BME280;1905;52.482;9.802;2023-02-14T12:46:28;102865.06;;;8.31;90.52
3780;BME280;1905;52.482;9.802;2023-02-14T12:49:11;102860.66;;;8.40;89.54
3780;BME280;1905;52.482;9.802;2023-02-14T12:51:43;102863.31;;;8.50;89.05
3780;BME280;1905;52.482;9.802;2023-02-14T12:54:28;102859.75;;;8.62;88.62
3780;BME280;1905;52.482;9.802;2023-02-14T12:57:03;102854.50;;;8.72;87.28
3780;BME280;1905;52.482;9.802;2023-02-14T12:59:42;102848.34;;;8.70;88.22
3780;BME280;1905;52.482;9.802;2023-02-14T13:02:51;102853.63;;;8.82;88.00
3780;BME280;1905;52.482;9.802;2023-02-14T13:05:33;102853.63;;;8.85;87.59
3780;BME280;1905;52.482;9.802;2023-02-14T13:08:14;102854.47;;;8.87;87.93
3780;BME280;1905;52.482;9.802;2023-02-14T13:10:52;102844.81;;;8.95;87.24
3780;BME280;1905;52.482;9.802;2023-02-14T13:13:30;102836.88;;;8.98;87.03
3780;BME280;1905;52.482;9.802;2023-02-14T13:16:10;102836.88;;;9.05;86.89
3780;BME280;1905;52.482;9.802;2023-02-14T13:18:47;102833.34;;;9.07;87.24
3780;BME280;1905;52.482;9.802;2023-02-14T13:21:19;102825.41;;;9.16;86.68
3780;BME280;1905;52.482;9.802;2023-02-14T13:23:53;102826.28;;;9.20;86.41
3780;BME280;1905;52.482;9.802;2023-02-14T13:26:27;102822.72;;;9.27;86.09
3780;BME280;1905;52.482;9.802;2023-02-14T13:29:01;102817.44;;;9.30;86.99
3780;BME280;1905;52.482;9.802;2023-02-14T13:31:30;102812.13;;;9.39;85.96
3780;BME280;1905;52.482;9.802;2023-02-14T13:34:01;102812.13;;;9.42;87.12
3780;BME280;1905;52.482;9.802;2023-02-14T13:36:30;102817.38;;;9.48;85.97
3780;BME280;1905;52.482;9.802;2023-02-14T13:38:59;102811.22;;;9.50;86.35
3780;BME280;1905;52.482;9.802;2023-02-14T13:41:27;102807.66;;;9.57;85.76
3780;BME280;1905;52.482;9.802;2023-02-14T13:43:56;102803.25;;;9.58;86.22
3780;BME280;1905;52.482;9.802;2023-02-14T13:46:47;102799.66;;;9.68;86.98
3780;BME280;1905;52.482;9.802;2023-02-14T13:49:24;102794.34;;;9.77;85.86
3780;BME280;1905;52.482;9.802;2023-02-14T13:51:54;102796.03;;;9.84;87.28
3780;BME280;1905;52.482;9.802;2023-02-14T13:54:31;102790.78;;;9.84;86.36
3780;BME280;1905;52.482;9.802;2023-02-14T13:57:03;102786.34;;;9.89;86.20